createdAt,value
2023-01-23T00:01:26.541Z,15.30
2023-01-23T00:03:53.493Z,13.57
2023-01-23T00:06:20.403Z,20.20
2023-01-23T00:08:47.163Z,12.02
2023-01-23T00:11:15.228Z,14.23
2023-01-23T00:13:41.711Z,14.55
2023-01-23T00:16:13.110Z,12.68
2023-01-23T00:18:39.641Z,14.55
2023-01-23T00:21:07.207Z,13.18
2023-01-23T00:23:34.054Z,12.90
2023-01-23T00:26:07.668Z,12.35
2023-01-23T00:28:34.670Z,12.77
2023-01-23T00:31:05.350Z,10.70
2023-01-23T00:33:32.051Z,12.18
2023-01-23T00:35:58.563Z,11.68
2023-01-23T00:38:25.089Z,12.95
2023-01-23T00:40:51.584Z,10.45
2023-01-23T00:43:18.061Z,11.13
2023-01-23T00:45:44.572Z,11.15
2023-01-23T00:48:11.041Z,10.93
2023-01-23T00:50:37.495Z,11.60
2023-01-23T00:53:03.980Z,10.23
2023-01-23T00:58:05.623Z,10.73
2023-01-23T01:00:32.145Z,11.88
2023-01-23T01:02:58.640Z,11.23
2023-01-23T01:05:25.107Z,12.15
2023-01-23T01:07:51.684Z,10.55
2023-01-23T01:10:18.727Z,12.02
2023-01-23T01:12:47.073Z,11.90
2023-01-23T01:15:13.937Z,10.77
2023-01-23T01:17:40.484Z,10.93
2023-01-23T01:20:07.381Z,9.75
2023-01-23T01:22:33.949Z,10.82
2023-01-23T01:25:00.488Z,9.63
2023-01-23T01:27:28.221Z,10.57
2023-01-23T01:29:54.747Z,10.00
2023-01-23T01:32:21.240Z,10.48
2023-01-23T01:34:47.704Z,9.48
2023-01-23T01:37:14.213Z,9.77
2023-01-23T01:39:40.671Z,11.15
2023-01-23T01:42:07.231Z,10.82
2023-01-23T01:44:52.192Z,10.20
2023-01-23T01:47:18.685Z,10.50
2023-01-23T01:49:45.343Z,12.00
2023-01-23T01:52:13.556Z,21.42
2023-01-23T01:54:42.792Z,16.58
2023-01-23T01:57:12.283Z,12.38
2023-01-23T01:59:42.849Z,13.35
2023-01-23T02:02:11.721Z,13.30
2023-01-23T02:04:41.041Z,12.77
2023-01-23T02:07:09.812Z,10.55
2023-01-23T02:09:36.314Z,11.05
2023-01-23T02:12:02.919Z,12.85
2023-01-23T02:14:29.535Z,12.77
2023-01-23T02:17:01.076Z,12.05
2023-01-23T02:19:33.413Z,12.88
2023-01-23T02:22:05.958Z,13.02
2023-01-23T02:24:37.166Z,12.07
2023-01-23T02:27:04.229Z,11.63
2023-01-23T02:29:40.710Z,14.00
2023-01-23T02:32:07.237Z,10.25
2023-01-23T02:34:33.791Z,13.82
2023-01-23T02:37:00.591Z,12.73
2023-01-23T02:39:27.712Z,13.32
2023-01-23T02:41:56.163Z,11.15
2023-01-23T02:44:27.232Z,12.15
2023-01-23T02:46:57.998Z,13.07
2023-01-23T02:49:24.585Z,11.60
2023-01-23T02:51:51.740Z,9.50
2023-01-23T02:54:18.773Z,11.43
2023-01-23T02:56:45.491Z,11.73
2023-01-23T02:59:30.990Z,10.60
2023-01-23T03:01:57.834Z,11.27
2023-01-23T03:04:24.359Z,10.85
2023-01-23T03:06:50.865Z,12.80
2023-01-23T03:09:17.827Z,12.73
2023-01-23T03:11:47.471Z,11.23
2023-01-23T03:14:18.123Z,13.23
2023-01-23T03:16:49.991Z,12.25
2023-01-23T03:19:17.279Z,11.13
2023-01-23T03:21:43.740Z,12.00
2023-01-23T03:24:11.787Z,12.98
2023-01-23T03:26:45.665Z,13.98
2023-01-23T03:29:37.622Z,13.00
2023-01-23T03:32:04.821Z,11.75
2023-01-23T03:34:32.098Z,14.02
2023-01-23T03:36:58.984Z,12.95
2023-01-23T03:39:44.003Z,15.15
2023-01-23T03:42:10.693Z,13.82
2023-01-23T03:44:37.501Z,14.70
2023-01-23T03:47:04.001Z,14.13
2023-01-23T03:49:30.575Z,15.38
2023-01-23T03:51:57.183Z,13.65
2023-01-23T03:54:23.680Z,14.43
2023-01-23T03:56:50.444Z,14.50
2023-01-23T03:59:16.932Z,14.35
2023-01-23T04:01:43.441Z,13.60
2023-01-23T04:04:09.945Z,13.30
2023-01-23T04:06:36.399Z,13.73
2023-01-23T04:09:02.926Z,14.48
2023-01-23T04:11:29.425Z,13.57
2023-01-23T04:13:56.012Z,14.75
2023-01-23T04:16:22.960Z,14.70
2023-01-23T04:18:50.426Z,14.43
2023-01-23T04:21:17.032Z,16.02
2023-01-23T04:23:43.758Z,14.57
2023-01-23T04:26:10.254Z,15.60
2023-01-23T04:28:37.077Z,14.48
2023-01-23T04:31:03.789Z,16.08
2023-01-23T04:33:30.337Z,14.88
2023-01-23T04:35:58.732Z,14.10
2023-01-23T04:38:26.285Z,13.05
2023-01-23T04:40:53.286Z,14.55
2023-01-23T04:43:19.978Z,15.48
2023-01-23T04:45:46.875Z,14.10
2023-01-23T04:48:13.681Z,15.23
2023-01-23T04:50:40.214Z,13.00
2023-01-23T04:53:06.724Z,13.75
2023-01-23T04:55:34.141Z,15.93
2023-01-23T04:58:00.745Z,16.25
2023-01-23T05:00:28.896Z,15.43
2023-01-23T05:02:55.943Z,14.57
2023-01-23T05:05:22.956Z,15.05
2023-01-23T05:07:49.684Z,16.40
2023-01-23T05:10:16.673Z,15.95
2023-01-23T05:12:43.325Z,14.02
2023-01-23T05:15:10.543Z,14.20
2023-01-23T05:17:37.035Z,15.45
2023-01-23T05:20:03.922Z,16.35
2023-01-23T05:22:30.983Z,13.18
2023-01-23T05:24:57.457Z,13.25
2023-01-23T05:27:23.961Z,13.38
2023-01-23T05:29:50.413Z,12.90
2023-01-23T05:32:16.910Z,14.65
2023-01-23T05:34:43.418Z,15.35
2023-01-23T05:37:09.871Z,15.88
2023-01-23T05:39:36.375Z,14.45
2023-01-23T05:42:03.316Z,14.80
2023-01-23T05:44:30.558Z,16.73
2023-01-23T05:46:57.102Z,16.13
2023-01-23T05:49:23.680Z,17.35
2023-01-23T05:51:50.197Z,15.90
2023-01-23T05:54:16.675Z,16.50
2023-01-23T05:56:43.132Z,13.32
2023-01-23T05:59:09.640Z,15.52
2023-01-23T06:01:36.134Z,14.02
2023-01-23T06:04:02.656Z,15.35
2023-01-23T06:06:29.098Z,17.05
2023-01-23T06:08:55.599Z,15.45
2023-01-23T06:11:22.057Z,15.95
2023-01-23T06:13:48.537Z,16.17
2023-01-23T06:16:15.165Z,16.92
2023-01-23T06:18:41.663Z,15.75
2023-01-23T06:21:08.233Z,17.48
2023-01-23T06:23:34.764Z,16.38
2023-01-23T06:26:02.263Z,16.70
2023-01-23T06:28:29.016Z,18.02
2023-01-23T06:30:55.879Z,16.95
2023-01-23T06:33:22.520Z,17.08
2023-01-23T06:35:49.040Z,16.30
2023-01-23T06:38:15.555Z,15.65
2023-01-23T06:40:42.066Z,15.63
2023-01-23T06:43:08.552Z,16.40
2023-01-23T06:45:35.182Z,15.55
2023-01-23T06:48:01.637Z,16.45
2023-01-23T06:50:28.111Z,16.35
2023-01-23T06:52:54.638Z,16.65
2023-01-23T06:55:21.324Z,15.95
2023-01-23T06:57:47.816Z,16.67
2023-01-23T07:00:14.720Z,16.27
2023-01-23T07:02:41.196Z,13.68
2023-01-23T07:05:07.915Z,14.27
2023-01-23T07:07:34.460Z,14.50
2023-01-23T07:10:00.939Z,14.30
2023-01-23T07:12:27.468Z,14.40
2023-01-23T07:14:53.969Z,15.95
2023-01-23T07:17:20.469Z,14.55
2023-01-23T07:19:46.966Z,14.18
2023-01-23T07:22:16.502Z,14.57
2023-01-23T07:24:42.981Z,15.40
2023-01-23T07:27:09.451Z,14.18
2023-01-23T07:29:35.972Z,14.82
2023-01-23T07:32:02.440Z,13.80
2023-01-23T07:34:28.913Z,13.23
2023-01-23T07:36:55.403Z,13.55
2023-01-23T07:39:21.969Z,14.23
2023-01-23T07:41:48.602Z,12.18
2023-01-23T07:44:17.618Z,12.77
2023-01-23T07:46:44.913Z,11.55
2023-01-23T07:49:11.575Z,11.40
2023-01-23T07:51:38.090Z,12.63
2023-01-23T07:54:05.007Z,13.02
2023-01-23T07:56:32.711Z,11.52
2023-01-23T07:58:59.539Z,14.05
2023-01-23T08:01:26.297Z,11.48
2023-01-23T08:03:53.620Z,12.57
2023-01-23T08:06:20.260Z,13.27
2023-01-23T08:08:49.583Z,11.75
2023-01-23T08:11:16.110Z,13.40
2023-01-23T08:13:42.826Z,13.05
2023-01-23T08:16:10.910Z,11.52
2023-01-23T08:18:39.140Z,11.55
2023-01-23T08:21:05.960Z,11.48
2023-01-23T08:23:33.765Z,12.60
2023-01-23T08:26:01.555Z,11.75
2023-01-23T08:28:28.432Z,11.27
2023-01-23T08:30:55.390Z,12.40
2023-01-23T08:33:21.936Z,11.95
2023-01-23T08:35:52.542Z,12.30
2023-01-23T08:38:21.849Z,11.85
2023-01-23T08:40:48.849Z,11.48
2023-01-23T08:43:15.592Z,11.70
2023-01-23T08:45:42.755Z,12.30
2023-01-23T08:48:09.233Z,12.98
2023-01-23T08:50:35.801Z,12.95
2023-01-23T08:53:02.364Z,12.10
2023-01-23T08:55:29.115Z,12.35
2023-01-23T08:57:55.618Z,12.68
2023-01-23T09:00:22.809Z,11.57
2023-01-23T09:02:49.410Z,13.38
2023-01-23T09:05:16.030Z,12.88
2023-01-23T09:07:42.488Z,12.23
2023-01-23T09:10:09.789Z,12.82
2023-01-23T09:12:36.505Z,12.88
2023-01-23T09:15:03.040Z,13.07
2023-01-23T09:17:29.527Z,11.23
2023-01-23T09:19:56.066Z,11.80
2023-01-23T09:22:22.526Z,12.55
2023-01-23T09:24:49.031Z,11.65
2023-01-23T09:27:15.545Z,11.63
2023-01-23T09:29:41.988Z,11.90
2023-01-23T09:32:08.482Z,11.80
2023-01-23T09:34:35.008Z,11.23
2023-01-23T09:37:01.450Z,12.98
2023-01-23T09:39:27.929Z,12.05
2023-01-23T09:41:54.573Z,11.90
2023-01-23T09:44:38.497Z,11.73
2023-01-23T09:47:14.947Z,11.63
2023-01-23T09:49:53.200Z,11.40
2023-01-23T09:52:21.503Z,12.27
2023-01-23T09:54:47.982Z,12.23
2023-01-23T09:57:20.486Z,11.50
2023-01-23T10:00:00.644Z,11.18
2023-01-23T10:02:27.732Z,9.95
2023-01-23T10:04:54.478Z,10.75
2023-01-23T10:07:27.799Z,11.57
2023-01-23T10:09:59.010Z,9.60
2023-01-23T10:12:39.933Z,10.00
2023-01-23T10:15:12.476Z,9.00
2023-01-23T10:17:47.532Z,9.73
2023-01-23T10:20:16.840Z,9.65
2023-01-23T10:22:56.795Z,10.20
2023-01-23T10:25:25.538Z,9.77
2023-01-23T10:27:55.716Z,9.98
2023-01-23T10:30:35.475Z,10.00
2023-01-23T10:33:22.261Z,9.10
2023-01-23T10:35:55.134Z,8.25
2023-01-23T10:38:46.316Z,9.13
2023-01-23T10:41:14.742Z,7.75
2023-01-23T10:43:42.124Z,7.40
2023-01-23T10:46:13.075Z,8.95
2023-01-23T10:48:40.025Z,8.23
2023-01-23T10:51:25.264Z,8.63
2023-01-23T10:54:11.503Z,7.93
2023-01-23T10:56:46.182Z,7.25
2023-01-23T10:59:18.559Z,7.50
2023-01-23T11:01:57.667Z,6.72
2023-01-23T11:04:26.214Z,5.68
2023-01-23T11:07:04.416Z,7.40
2023-01-23T11:09:32.319Z,7.00
2023-01-23T11:12:05.766Z,7.40
2023-01-23T11:14:32.853Z,7.72
2023-01-23T11:17:17.984Z,7.05
2023-01-23T11:19:45.703Z,6.65
2023-01-23T11:22:26.964Z,7.28
2023-01-23T11:24:53.530Z,6.88
2023-01-23T11:27:23.637Z,7.10
2023-01-23T11:30:03.982Z,7.15
2023-01-23T11:32:32.508Z,6.43
2023-01-23T11:35:13.563Z,7.90
2023-01-23T11:37:40.923Z,7.53
2023-01-23T11:40:11.647Z,7.35
2023-01-23T11:42:40.222Z,7.90
2023-01-23T11:45:25.407Z,7.85
2023-01-23T11:48:08.132Z,6.70
2023-01-23T11:50:54.457Z,7.03
2023-01-23T11:53:36.991Z,6.97
2023-01-23T11:56:21.455Z,7.13
2023-01-23T11:58:50.280Z,5.72
2023-01-23T12:01:17.455Z,6.03
2023-01-23T12:03:59.312Z,4.85
2023-01-23T12:06:25.791Z,4.45
2023-01-23T12:08:52.674Z,5.13
2023-01-23T12:11:20.454Z,5.05
2023-01-23T12:14:05.468Z,4.80
2023-01-23T12:16:34.752Z,4.75
2023-01-23T12:19:04.143Z,4.30
2023-01-23T12:21:43.251Z,4.07
2023-01-23T12:24:12.804Z,5.07
2023-01-23T12:26:45.308Z,4.55
2023-01-23T12:29:15.738Z,4.43
2023-01-23T12:31:45.304Z,3.20
2023-01-23T12:34:32.041Z,3.00
2023-01-23T12:37:11.801Z,3.03
2023-01-23T12:39:41.857Z,2.83
2023-01-23T12:42:18.963Z,2.42
2023-01-23T12:44:57.383Z,2.20
2023-01-23T12:47:30.705Z,2.17
2023-01-23T12:49:59.412Z,1.45
2023-01-23T12:52:28.772Z,1.40
2023-01-23T12:55:01.346Z,1.55
2023-01-23T12:57:52.528Z,1.30
2023-01-23T13:00:46.468Z,1.15
2023-01-23T13:03:15.910Z,1.42
2023-01-23T13:05:52.185Z,1.50
2023-01-23T13:08:25.012Z,1.58
2023-01-23T13:11:28.395Z,1.30
2023-01-23T13:13:55.070Z,1.45
2023-01-23T13:16:24.726Z,1.23
2023-01-23T13:19:13.837Z,1.70
2023-01-23T13:21:59.432Z,1.77
2023-01-23T13:25:01.694Z,1.13
2023-01-23T13:27:34.055Z,1.42
2023-01-23T13:30:02.367Z,1.30
2023-01-23T13:32:29.533Z,1.50
2023-01-23T13:34:56.088Z,1.50
2023-01-23T13:37:28.790Z,1.65
2023-01-23T13:40:06.782Z,1.63
2023-01-23T13:42:34.589Z,1.70
2023-01-23T13:45:16.425Z,2.15
2023-01-23T14:21:57.764Z,2.72
2023-01-23T14:24:26.419Z,2.75
2023-01-23T14:27:02.416Z,2.70
2023-01-23T14:29:31.027Z,2.90
2023-01-23T14:31:57.540Z,2.97
2023-01-23T14:34:25.057Z,2.75
2023-01-23T14:36:51.592Z,2.70
2023-01-23T14:39:26.728Z,2.70
2023-01-23T14:41:55.356Z,3.15
2023-01-23T14:44:23.589Z,2.85
2023-01-23T14:46:53.808Z,2.70
2023-01-23T14:49:31.426Z,2.60
2023-01-23T14:52:06.075Z,3.17
2023-01-23T14:54:33.804Z,2.60
2023-01-23T14:57:01.760Z,3.10
2023-01-23T14:59:30.917Z,2.45
2023-01-23T15:01:58.313Z,3.53
2023-01-23T15:04:26.635Z,3.60
2023-01-23T15:06:53.916Z,3.83
2023-01-23T15:09:24.050Z,3.50
2023-01-23T15:11:50.695Z,3.75
2023-01-23T15:14:25.347Z,3.28
2023-01-23T15:16:58.641Z,3.50
2023-01-23T15:19:25.795Z,2.45
2023-01-23T15:22:04.661Z,3.70
2023-01-23T15:24:31.159Z,2.88
2023-01-23T15:27:03.671Z,3.00
2023-01-23T15:29:30.327Z,3.17
2023-01-23T15:31:57.477Z,2.40
2023-01-23T15:34:25.877Z,3.40
2023-01-23T15:36:56.811Z,2.70
2023-01-23T15:39:23.308Z,3.50
2023-01-23T15:41:51.691Z,2.30
2023-01-23T15:44:19.667Z,2.70
2023-01-23T15:46:46.276Z,2.38
2023-01-23T15:49:24.335Z,2.40
2023-01-23T15:51:51.635Z,2.90
2023-01-23T15:54:24.296Z,2.60
2023-01-23T15:57:05.437Z,3.08
2023-01-23T15:59:33.216Z,2.53
2023-01-23T16:01:59.759Z,3.20
2023-01-23T16:04:26.236Z,3.10
2023-01-23T16:06:52.744Z,4.03
2023-01-23T16:09:26.196Z,2.97
2023-01-23T16:11:53.081Z,2.75
2023-01-23T16:14:20.160Z,2.78
2023-01-23T16:16:46.914Z,2.78
2023-01-23T16:19:13.499Z,3.03
2023-01-23T16:21:45.820Z,2.72
2023-01-23T16:24:24.117Z,2.75
2023-01-23T16:26:51.850Z,2.53
2023-01-23T16:29:28.749Z,3.40
2023-01-23T16:31:55.939Z,3.70
2023-01-23T16:34:22.969Z,2.90
2023-01-23T16:36:50.861Z,2.42
2023-01-23T16:39:18.837Z,2.25
2023-01-23T16:41:46.259Z,2.10
2023-01-23T16:44:14.131Z,2.67
2023-01-23T16:46:40.618Z,2.63
2023-01-23T16:49:07.336Z,2.70
2023-01-23T16:51:34.182Z,2.30
2023-01-23T16:54:08.557Z,2.30
2023-01-23T16:56:42.088Z,2.72
2023-01-23T16:59:14.295Z,2.78
2023-01-23T17:01:43.710Z,3.05
2023-01-23T17:04:12.594Z,3.05
2023-01-23T17:06:39.086Z,2.67
2023-01-23T17:09:05.617Z,2.95
2023-01-23T17:11:35.559Z,2.40
2023-01-23T17:14:07.075Z,2.35
2023-01-23T17:16:33.696Z,1.98
2023-01-23T17:19:03.575Z,2.28
2023-01-23T17:21:33.281Z,2.35
2023-01-23T17:23:59.888Z,2.40
2023-01-23T17:26:26.430Z,2.60
2023-01-23T17:28:53.147Z,1.95
2023-01-23T17:31:23.349Z,2.90
2023-01-23T17:33:50.299Z,2.75
2023-01-23T17:36:17.205Z,2.33
2023-01-23T17:38:43.752Z,2.42
2023-01-23T17:41:14.229Z,4.13
2023-01-23T17:43:41.020Z,2.83
2023-01-23T17:46:08.158Z,3.00
2023-01-23T17:48:38.539Z,2.70
2023-01-23T17:51:05.133Z,2.72
2023-01-23T17:53:31.662Z,2.63
2023-01-23T17:55:58.145Z,3.55
2023-01-23T17:58:25.932Z,3.92
2023-01-23T18:00:53.742Z,2.65
2023-01-23T18:03:22.193Z,3.88
2023-01-23T18:05:48.761Z,1.98
2023-01-23T18:08:16.009Z,1.92
2023-01-23T18:10:46.429Z,1.90
2023-01-23T18:13:18.879Z,2.00
2023-01-23T18:15:45.368Z,2.08
2023-01-23T18:18:30.549Z,2.10
2023-01-23T18:20:57.396Z,2.22
2023-01-23T18:23:24.709Z,2.53
2023-01-23T18:26:11.412Z,2.15
2023-01-23T18:28:44.945Z,2.35
2023-01-23T18:31:14.228Z,2.15
2023-01-23T18:33:47.009Z,2.70
2023-01-23T18:36:21.153Z,2.47
2023-01-23T18:38:53.645Z,2.25
2023-01-23T18:41:24.587Z,2.55
2023-01-23T18:44:01.408Z,2.13
2023-01-23T18:46:28.143Z,2.78
2023-01-23T18:48:55.377Z,3.70
2023-01-23T18:51:21.842Z,3.65
2023-01-23T18:53:48.310Z,4.30
2023-01-23T18:56:34.219Z,3.28
2023-01-23T18:59:12.624Z,3.78
2023-01-23T19:01:39.684Z,4.10
2023-01-23T19:04:10.854Z,4.72
2023-01-23T19:06:38.275Z,5.53
2023-01-23T19:09:04.918Z,3.95
2023-01-23T19:11:40.580Z,3.65
2023-01-23T19:14:09.820Z,3.45
2023-01-23T19:16:41.253Z,3.25
2023-01-23T19:19:19.720Z,3.67
2023-01-23T19:21:46.689Z,5.72
2023-01-23T19:24:15.359Z,3.75
2023-01-23T19:26:42.126Z,4.40
2023-01-23T19:29:20.955Z,7.30
2023-01-23T19:32:04.758Z,3.97
2023-01-23T19:34:32.423Z,5.07
2023-01-23T19:36:58.901Z,4.80
2023-01-23T19:39:25.450Z,3.10
2023-01-23T19:41:53.350Z,3.67
2023-01-23T19:44:20.850Z,4.82
2023-01-23T19:46:47.689Z,3.90
2023-01-23T19:49:14.160Z,3.88
2023-01-23T19:51:40.917Z,5.30
2023-01-23T19:54:12.543Z,5.65
2023-01-23T19:56:39.488Z,5.93
2023-01-23T19:59:06.274Z,5.05
2023-01-23T20:01:38.683Z,8.52
2023-01-23T20:04:05.899Z,6.78
2023-01-23T20:06:34.368Z,5.57
2023-01-23T20:09:00.953Z,5.10
2023-01-23T20:11:27.444Z,6.32
2023-01-23T20:13:53.959Z,5.82
2023-01-23T20:16:21.616Z,6.57
2023-01-23T20:18:48.961Z,6.18
2023-01-23T20:21:16.210Z,6.93
2023-01-23T20:23:42.865Z,8.85
2023-01-23T20:26:09.464Z,5.20
2023-01-23T20:28:36.329Z,5.88
2023-01-23T20:31:03.953Z,5.30
2023-01-23T20:33:30.473Z,3.30
2023-01-23T20:35:56.942Z,3.20
2023-01-23T20:38:24.482Z,4.30
2023-01-23T20:40:50.978Z,3.50
2023-01-23T20:43:18.062Z,2.75
2023-01-23T20:45:45.492Z,3.05
2023-01-23T20:48:12.025Z,3.00
2023-01-23T20:50:38.631Z,3.90
2023-01-23T20:53:23.906Z,3.60
2023-01-23T20:55:53.685Z,3.92
2023-01-23T20:58:38.857Z,4.43
2023-01-23T21:01:05.447Z,4.10
2023-01-23T21:03:32.008Z,3.50
2023-01-23T21:05:58.529Z,4.07
2023-01-23T21:08:26.343Z,3.40
2023-01-23T21:10:53.238Z,2.90
2023-01-23T21:13:20.251Z,3.80
2023-01-23T21:15:59.644Z,4.63
2023-01-23T21:18:26.273Z,3.20
2023-01-23T21:20:53.841Z,3.28
2023-01-23T21:23:20.370Z,2.47
2023-01-23T21:25:46.892Z,2.67
2023-01-23T21:28:13.376Z,3.08
2023-01-23T21:30:40.231Z,4.40
2023-01-23T21:33:07.157Z,4.72
2023-01-23T21:35:33.626Z,4.40
2023-01-23T21:38:01.701Z,5.47
2023-01-23T21:40:28.200Z,5.72
2023-01-23T21:42:54.649Z,4.90
2023-01-23T21:45:21.315Z,5.55
2023-01-23T21:47:48.016Z,5.75
2023-01-23T21:50:17.672Z,7.07
2023-01-23T21:52:44.701Z,4.78
2023-01-23T21:55:11.162Z,4.20
2023-01-23T21:57:37.620Z,11.10
2023-01-23T22:00:22.674Z,7.22
2023-01-23T22:02:49.350Z,7.97
2023-01-23T22:05:15.960Z,4.50
2023-01-23T22:07:42.501Z,3.75
2023-01-23T22:10:09.286Z,5.45
2023-01-23T22:12:35.743Z,4.07
2023-01-23T22:15:02.282Z,3.80
2023-01-23T22:17:28.765Z,5.55
2023-01-23T22:19:55.219Z,3.40
2023-01-23T22:22:21.739Z,3.25
2023-01-23T22:24:48.423Z,2.75
2023-01-23T22:27:14.905Z,2.10
2023-01-23T22:29:41.439Z,2.47
2023-01-23T22:32:08.022Z,2.40
2023-01-23T22:34:34.535Z,2.35
2023-01-23T22:37:00.989Z,2.30
2023-01-23T22:39:27.833Z,2.75
2023-01-23T22:41:54.304Z,4.43
2023-01-23T22:44:20.847Z,3.50
2023-01-23T22:46:49.777Z,2.53
2023-01-23T22:49:16.255Z,5.63
2023-01-23T22:51:42.764Z,2.22
2023-01-23T22:54:09.341Z,2.25
2023-01-23T22:56:35.904Z,2.38
2023-01-23T22:59:02.440Z,2.55
2023-01-23T23:01:28.980Z,2.70
2023-01-23T23:03:59.752Z,3.20
2023-01-23T23:06:26.705Z,1.88
2023-01-23T23:08:53.458Z,1.80
2023-01-23T23:11:21.444Z,1.88
2023-01-23T23:13:47.975Z,1.60
2023-01-23T23:16:18.871Z,2.00
2023-01-23T23:18:46.292Z,1.90
2023-01-23T23:21:14.025Z,1.83
2023-01-23T23:23:40.608Z,1.77
2023-01-23T23:26:08.455Z,2.20
2023-01-23T23:28:35.475Z,2.13
2023-01-23T23:31:02.051Z,1.63
2023-01-23T23:33:28.569Z,1.77
2023-01-23T23:35:55.105Z,1.70
2023-01-23T23:38:21.780Z,1.85
2023-01-23T23:40:58.232Z,2.45
2023-01-23T23:43:25.079Z,2.20
2023-01-23T23:45:52.545Z,1.90
2023-01-23T23:48:19.357Z,2.47
2023-01-23T23:50:45.877Z,2.50
2023-01-23T23:53:12.418Z,1.63
2023-01-23T23:55:38.869Z,1.45
2023-01-23T23:58:05.440Z,1.90
